This is the latest recevied weather packets stored in our database for station/object KJ7HSW. If no packets are shown the sender has not sent any weather packets the latest 1 day(s).
| Time | Temp. | Humidity | Pressure | Rain* | Wind** | Luminosity | Snow |
|---|---|---|---|---|---|---|---|
| 1778093009 | 12.78° C | 88% | 1019.4 hPa | 0 mm | - | 173 W/m² | - |
| 1778092401 | 12.78° C | 88% | 1019.3 hPa | 0 mm | - | 180 W/m² | - |
| 1778092099 | 12.22° C | 88% | 1019.3 hPa | 0 mm | - | 171 W/m² | - |
| 1778091796 | 12.78° C | 88% | 1019.2 hPa | 0 mm | - | 210 W/m² | - |
| 1778091494 | 12.78° C | 88% | 1019.3 hPa | 0 mm | - | 202 W/m² | - |
| 1778087554 | 12.22° C | 89% | 1019 hPa | 0 mm | - | 110 W/m² | - |
| 1778086041 | 12.22° C | 89% | 1018.9 hPa | 0 mm | - | 108 W/m² | - |
| 1778085129 | 12.22° C | 89% | 1019.1 hPa | 0 mm | - | 111 W/m² | - |
| 1778084523 | 12.22° C | 89% | 1018.9 hPa | 0 mm | - | 130 W/m² | - |
| 1778080054 | 11.67° C | 91% | 1018.3 hPa | 0 mm | - | 66 W/m² | - |
| 1778079145 | 11.67° C | 91% | 1018.4 hPa | 0 mm | - | 58 W/m² | - |
| 1778075817 | 10.56° C | 95% | 1018.2 hPa | 0 mm | - | 35 W/m² | - |
| 1778074906 | 10.56° C | 95% | 1018.1 hPa | 0 mm | - | 22 W/m² | - |
| 1778073392 | 10° C | 96% | 1018 hPa | 0 mm | - | 11 W/m² | - |
| 1778073088 | 10° C | 96% | 1018.1 hPa | 0 mm | - | 11 W/m² | - |
| 1778072785 | 9.44° C | 96% | 1018.1 hPa | 0 mm | - | 10 W/m² | - |
| 1778069761 | 9.44° C | 96% | 1017.9 hPa | 0 mm | - | 0 W/m² | - |
| 1778069457 | 9.44° C | 96% | 1017.8 hPa | 0 mm | - | 0 W/m² | - |
| 1778069155 | 10° C | 96% | 1017.7 hPa | 0 mm | - | 0 W/m² | - |
| 1778067038 | 9.44° C | 96% | 1017.5 hPa | 0 mm | - | 0 W/m² | - |
| 1778066432 | 10° C | 96% | 1017.5 hPa | 0 mm | - | 0 W/m² | - |
| 1778066130 | 10° C | 96% | 1017.4 hPa | 0 mm | - | 0 W/m² | - |
| 1778065827 | 10° C | 96% | 1017.4 hPa | 0 mm | - | 0 W/m² | - |
| 1778064010 | 10.56° C | 94% | 1016.9 hPa | 0 mm | - | 0 W/m² | - |
| 1778063707 | 10.56° C | 94% | 1016.8 hPa | 0 mm | - | 0 W/m² | - |
* Rain latest hour (hover to see other rain measurements)
** Current wind speed in m/s (hover to see current wind gust speed)